Time;durP1;ratioP1;P1;durP2;ratioP2;P2;SDS_P1;SDS_P2;PMS_P1;PMS_P2;Temp;Humidity;BMP_temperature;BMP_pressure;BME280_temperature;BME280_humidity;BME280_pressure;Samples;Min_cycle;Max_cycle;Signal;HPM_P1;HPM_P2
2022/11/06 00:01:58;;;;;;;4.68;3.13;;;;;;;19.54;53.04;101139.66;4997490;28;20047;-80
2022/11/06 00:04:34;;;;;;;5.63;3.58;;;;;;;19.54;53.21;101136.97;4997585;28;20046;-80
2022/11/06 00:07:01;;;;;;;5.28;3.40;;;;;;;19.53;53.40;101143.34;4995435;28;20065;-80
2022/11/06 00:09:28;;;;;;;5.10;3.20;;;;;;;19.53;53.19;101137.97;4997083;28;20114;-80
2022/11/06 00:11:56;;;;;;;5.18;3.20;;;;;;;19.52;53.40;101138.94;4996649;28;20073;-81
2022/11/06 00:14:24;;;;;;;5.00;3.47;;;;;;;19.52;53.23;101136.25;4995547;28;20054;-80
2022/11/06 00:16:51;;;;;;;5.78;3.10;;;;;;;19.52;53.28;101138.94;5011586;28;20050;-80
2022/11/06 00:19:18;;;;;;;7.32;3.45;;;;;;;19.52;53.33;101141.59;5011683;28;20055;-80
2022/11/06 00:21:45;;;;;;;5.18;3.42;;;;;;;19.51;53.26;101142.59;4997049;28;20050;-80
2022/11/06 00:24:14;;;;;;;4.97;2.90;;;;;;;19.51;53.28;101135.38;4996557;28;20050;-80
2022/11/06 00:26:42;;;;;;;4.35;2.90;;;;;;;19.50;53.24;101130.16;4996695;28;20049;-80
2022/11/06 00:29:13;;;;;;;4.90;3.35;;;;;;;19.50;53.17;101128.31;4996575;28;20055;-80
2022/11/06 00:31:40;;;;;;;5.32;3.05;;;;;;;19.51;53.12;101129.16;4996691;28;20382;-80
2022/11/06 00:34:09;;;;;;;6.22;2.75;;;;;;;19.50;53.03;101140.91;4996988;28;20043;-80
2022/11/06 00:36:37;;;;;;;4.72;3.30;;;;;;;19.49;52.94;101132.00;4996916;28;20042;-80
2022/11/06 00:39:04;;;;;;;4.70;2.72;;;;;;;19.50;53.15;101135.53;4996510;28;20469;-80
2022/11/06 00:41:32;;;;;;;6.97;3.50;;;;;;;19.49;53.05;101131.16;4996286;28;20069;-80
2022/11/06 00:44:01;;;;;;;5.63;3.47;;;;;;;19.49;53.02;101132.00;4996151;28;20051;-80
2022/11/06 00:46:28;;;;;;;5.25;3.28;;;;;;;19.48;53.14;101130.25;4996066;28;20050;-80
2022/11/06 00:48:56;;;;;;;5.50;3.00;;;;;;;19.48;52.93;101132.09;4996140;28;20501;-80
2022/11/06 00:51:29;;;;;;;4.97;3.10;;;;;;;19.49;52.99;101141.88;4996110;28;20042;-80
2022/11/06 00:54:01;;;;;;;6.55;3.40;;;;;;;19.47;52.92;101142.00;4996405;28;20486;-80
2022/11/06 00:56:30;;;;;;;7.50;3.37;;;;;;;19.48;52.99;101148.22;4996809;28;20057;-80
2022/11/06 00:58:59;;;;;;;4.28;2.65;;;;;;;19.46;53.03;101153.72;4996036;28;20046;-80
2022/11/06 01:01:29;;;;;;;6.53;3.03;;;;;;;19.46;52.98;101151.03;5011388;28;20371;-80
2022/11/06 01:03:59;;;;;;;4.50;3.13;;;;;;;19.46;53.01;101161.78;4996032;28;20050;-80
2022/11/06 01:06:29;;;;;;;4.47;3.17;;;;;;;19.47;52.95;101159.94;4996601;28;20054;-80
2022/11/06 01:08:57;;;;;;;4.55;3.15;;;;;;;19.45;52.95;101168.13;4996322;28;20053;-81
2022/11/06 01:11:27;;;;;;;4.30;3.10;;;;;;;19.46;52.92;101168.97;4995859;28;20055;-80
2022/11/06 01:14:14;;;;;;;5.03;3.28;;;;;;;19.45;53.05;101167.28;4995804;28;20057;-80
2022/11/06 01:16:42;;;;;;;7.32;3.63;;;;;;;19.45;53.10;101176.19;4995871;28;20378;-80
2022/11/06 01:19:14;;;;;;;7.97;3.30;;;;;;;19.45;53.18;101168.13;4995647;28;20505;-80
2022/11/06 01:21:43;;;;;;;5.25;3.70;;;;;;;19.45;53.19;101167.28;4995989;28;20061;-80
2022/11/06 01:24:17;;;;;;;5.63;3.10;;;;;;;19.44;53.13;101171.75;4995422;28;20050;-81
2022/11/06 01:26:45;;;;;;;7.68;2.97;;;;;;;19.44;53.21;101171.75;4994886;28;20050;-80
2022/11/06 01:29:32;;;;;;;4.63;3.15;;;;;;;19.43;53.10;101166.53;4995576;28;20054;-80
2022/11/06 01:32:00;;;;;;;4.85;3.35;;;;;;;19.44;53.33;101176.28;4995436;28;20057;-79
2022/11/06 01:34:27;;;;;;;8.60;3.67;;;;;;;19.43;53.20;101177.28;4995397;28;20073;-80
2022/11/06 01:36:55;;;;;;;4.28;2.65;;;;;;;19.43;53.35;101180.81;5010152;28;20050;-80
2022/11/06 01:39:22;;;;;;;5.10;3.00;;;;;;;19.42;53.14;101178.25;4995613;28;20374;-80
2022/11/06 01:41:51;;;;;;;5.40;3.40;;;;;;;19.43;53.02;101177.28;4995033;28;20042;-80
2022/11/06 01:44:40;;;;;;;7.25;3.22;;;;;;;19.41;53.21;101174.72;4994931;28;20046;-80
2022/11/06 01:47:28;;;;;;;5.78;2.85;;;;;;;19.43;53.09;101177.28;5010632;28;20401;-79
2022/11/06 01:50:01;;;;;;;5.13;2.90;;;;;;;19.42;53.06;101176.41;4995243;28;20050;-80
2022/11/06 01:52:31;;;;;;;5.45;2.92;;;;;;;19.42;53.05;101178.25;4995520;28;20482;-80
2022/11/06 01:55:11;;;;;;;5.28;3.10;;;;;;;19.42;52.92;101167.53;5010689;28;20496;-80
2022/11/06 01:57:38;;;;;;;5.65;3.30;;;;;;;19.41;53.07;101171.19;4994973;28;20053;-80
2022/11/06 02:00:07;;;;;;;5.03;2.90;;;;;;;19.41;52.69;101168.50;4994720;28;20046;-80
2022/11/06 02:02:36;;;;;;;5.50;3.80;;;;;;;19.41;52.86;101161.31;4995390;28;20385;-80
2022/11/06 02:05:04;;;;;;;4.20;2.70;;;;;;;19.40;52.76;101156.88;4994713;28;20049;-80
2022/11/06 02:07:33;;;;;;;5.22;3.05;;;;;;;19.40;52.82;101151.50;4994847;28;20468;-80
2022/11/06 02:10:00;;;;;;;4.90;2.75;;;;;;;19.40;52.62;101158.72;4995143;28;20054;-80
2022/11/06 02:12:52;;;;;;;5.88;2.80;;;;;;;19.39;52.58;101157.88;4994340;28;20059;-80
2022/11/06 02:15:44;;;;;;;3.70;2.47;;;;;;;19.40;52.66;101156.03;4995088;28;20046;-80
2022/11/06 02:18:37;;;;;;;4.32;2.65;;;;;;;19.38;52.79;101142.75;4994948;28;20042;-80
2022/11/06 02:21:29;;;;;;;4.15;2.60;;;;;;;19.39;52.72;101148.97;5012061;28;20058;-80
2022/11/06 02:24:11;;;;;;;5.10;3.17;;;;;;;19.37;52.42;101145.56;4996330;28;20054;-80
2022/11/06 02:27:00;;;;;;;4.40;2.80;;;;;;;19.37;52.49;101146.41;5012261;28;20062;-80
2022/11/06 02:29:50;;;;;;;5.40;2.70;;;;;;;19.37;52.66;101148.25;5012428;28;20660;-80
2022/11/06 02:32:43;;;;;;;4.10;2.70;;;;;;;19.36;52.45;101146.53;5011943;28;20066;-80
2022/11/06 02:35:20;;;;;;;;;;;;;;;19.36;52.40;101147.38;5013074;28;20045;-81
2022/11/06 02:37:52;;;;;;;5.30;2.97;;;;;;;19.36;52.46;101143.84;5012794;28;19922;-80
2022/11/06 02:40:23;;;;;;;4.68;2.38;;;;;;;19.35;52.80;101136.78;5012460;28;20109;-81
2022/11/06 02:42:53;;;;;;;3.72;2.30;;;;;;;19.34;52.26;101146.66;5012282;28;20481;-81
2022/11/06 02:45:22;;;;;;;3.60;2.45;;;;;;;19.34;52.57;101154.72;5011867;28;20410;-80
2022/11/06 02:47:53;;;;;;;4.97;2.42;;;;;;;19.33;52.31;101150.31;4995114;28;20061;-80
2022/11/06 02:50:26;;;;;;;4.95;2.85;;;;;;;19.34;52.33;101164.59;5012668;28;20065;-81
2022/11/06 02:52:59;;;;;;;4.00;2.55;;;;;;;19.34;52.46;101159.22;5012777;28;20499;-79
2022/11/06 02:55:30;;;;;;;4.03;2.50;;;;;;;19.33;52.36;101163.75;5011805;28;20053;-80
2022/11/06 02:58:02;;;;;;;4.50;2.63;;;;;;;19.33;52.28;101157.53;5003655;28;20058;-80
2022/11/06 03:00:32;;;;;;;3.63;2.67;;;;;;;19.34;52.75;101164.59;4994723;28;20386;-81
2022/11/06 03:03:05;;;;;;;5.00;2.53;;;;;;;19.33;52.32;101157.53;4994280;28;20053;-80
2022/11/06 03:05:35;;;;;;;;;;;;;;;19.33;52.20;101171.81;4995239;28;20493;-80
2022/11/06 03:08:14;;;;;;;4.55;2.67;;;;;;;19.33;52.30;101161.06;4993910;28;19929;-80
2022/11/06 03:10:58;;;;;;;8.05;2.67;;;;;;;19.33;52.23;101165.59;4994802;28;20058;-90
2022/11/06 03:13:57;;;;;;;4.53;2.97;;;;;;;19.32;52.44;101167.38;5013954;28;20053;-80
2022/11/06 03:16:48;;;;;;;4.93;2.50;;;;;;;19.32;52.06;101186.19;5013095;28;20059;-80
2022/11/06 03:19:41;;;;;;;3.28;2.33;;;;;;;19.32;52.07;101188.00;4998033;28;20042;-81
2022/11/06 03:22:20;;;;;;;6.30;2.83;;;;;;;19.32;51.96;101178.13;4998627;28;20046;-82
2022/11/06 03:25:19;;;;;;;4.03;2.15;;;;;;;19.31;52.00;101180.94;4996387;28;20057;-80
2022/11/06 03:28:05;;;;;;;3.83;2.40;;;;;;;19.31;51.91;101176.44;4998065;28;20049;-80
2022/11/06 03:30:37;;;;;;;3.20;2.20;;;;;;;19.31;51.97;101179.09;4998240;28;20097;-81
2022/11/06 03:33:19;;;;;;;3.37;2.10;;;;;;;19.32;52.00;101182.66;4998320;28;20600;-80
2022/11/06 03:35:52;;;;;;;6.78;2.03;;;;;;;19.31;51.93;101197.91;4998030;28;20050;-81
2022/11/06 03:38:31;;;;;;;4.10;2.30;;;;;;;19.30;52.01;101204.25;4998135;28;20046;-80
2022/11/06 03:41:13;;;;;;;3.78;2.05;;;;;;;19.31;52.19;101205.09;4997672;28;20378;-80
2022/11/06 03:43:44;;;;;;;3.25;1.85;;;;;;;19.30;52.27;101206.09;4996002;28;20054;-80
2022/11/06 03:46:18;;;;;;;9.55;2.53;;;;;;;19.30;52.13;101211.47;4998032;28;20051;-80
2022/11/06 03:48:53;;;;;;;7.65;2.45;;;;;;;19.30;52.12;101214.16;4997511;28;20042;-80
2022/11/06 03:51:22;;;;;;;4.05;2.33;;;;;;;19.29;52.19;101212.44;4997423;28;20046;-80
2022/11/06 03:53:54;;;;;;;4.50;1.95;;;;;;;19.29;51.90;101215.13;4997172;28;20046;-80
2022/11/06 03:56:31;;;;;;;4.00;2.10;;;;;;;19.29;52.17;101217.81;4997944;28;20050;-79
2022/11/06 03:59:02;;;;;;;3.97;2.08;;;;;;;19.27;52.08;101221.44;4997697;28;20065;-80
2022/11/06 04:01:35;;;;;;;4.43;2.05;;;;;;;19.28;52.18;101219.63;4997817;28;20386;-80
2022/11/06 04:04:03;;;;;;;4.18;1.98;;;;;;;19.28;52.19;101227.66;4997825;28;20050;-81
2022/11/06 04:06:52;;;;;;;4.20;2.13;;;;;;;19.27;52.04;101229.50;4997407;28;20050;-80
2022/11/06 04:14:58;;;;;;;4.43;1.77;;;;;;;19.27;52.04;101234.03;4996964;28;20054;-79
2022/11/06 04:17:27;;;;;;;4.15;2.10;;;;;;;19.25;51.98;101231.47;4997199;28;20049;-80
2022/11/06 04:20:00;;;;;;;4.18;2.20;;;;;;;19.26;51.93;101235.00;4996606;28;20046;-80
2022/11/06 04:22:38;;;;;;;;;;;;;;;19.25;52.08;101236.00;4996460;28;20051;-80
2022/11/06 04:28:15;;;;;;;3.60;1.65;;;;;;;19.24;51.84;101245.88;4996508;28;20049;-80
2022/11/06 04:30:55;;;;;;;4.53;2.10;;;;;;;19.24;52.10;101250.38;4997260;28;20053;-79
2022/11/06 04:33:37;;;;;;;3.63;2.00;;;;;;;19.23;51.73;101249.50;4996980;28;20062;-79
2022/11/06 04:36:14;;;;;;;4.10;2.05;;;;;;;19.22;51.93;101255.88;4996911;28;20046;-78
2022/11/06 04:39:01;;;;;;;4.32;2.22;;;;;;;19.22;51.82;101255.00;4996296;28;20042;-78
2022/11/06 04:41:54;;;;;;;4.07;1.75;;;;;;;19.23;51.87;101251.34;4997060;28;20057;-79
2022/11/06 04:44:32;;;;;;;3.47;1.70;;;;;;;19.22;51.88;101247.81;4997004;28;20458;-79
2022/11/06 04:47:13;;;;;;;4.93;1.80;;;;;;;19.21;51.82;101259.53;4996565;28;20058;-79
2022/11/06 04:49:42;;;;;;;3.20;1.70;;;;;;;19.21;51.74;101251.47;4996500;28;20393;-78
2022/11/06 04:52:16;;;;;;;5.68;1.98;;;;;;;19.21;51.81;101262.22;4996203;28;20050;-79
2022/11/06 04:54:45;;;;;;;3.40;1.73;;;;;;;19.21;52.00;101256.84;4996604;28;20398;-79
2022/11/06 04:57:12;;;;;;;3.05;1.70;;;;;;;19.22;51.73;101249.66;4996716;28;20046;-79
2022/11/06 04:59:40;;;;;;;3.25;1.55;;;;;;;19.20;51.70;101249.78;4996686;28;20038;-79
2022/11/06 05:02:07;;;;;;;3.53;1.80;;;;;;;19.21;51.79;101247.94;4995942;28;20150;-78
2022/11/06 05:04:35;;;;;;;3.70;1.75;;;;;;;19.20;51.96;101254.25;4996015;28;20433;-79
2022/11/06 05:07:02;;;;;;;3.00;1.67;;;;;;;19.19;51.62;101245.34;4995985;28;20057;-79
2022/11/06 05:09:29;;;;;;;4.75;2.00;;;;;;;19.20;51.76;101247.09;4996514;28;20482;-79
2022/11/06 05:11:57;;;;;;;4.40;1.90;;;;;;;19.20;51.63;101248.91;4995398;28;20065;-79
2022/11/06 05:14:24;;;;;;;3.42;1.50;;;;;;;19.19;51.66;101253.41;4996488;28;20046;-79
2022/11/06 05:16:51;;;;;;;2.97;1.50;;;;;;;19.19;51.56;101250.72;4995578;28;20046;-79
2022/11/06 05:19:18;;;;;;;4.25;1.60;;;;;;;19.19;51.54;101253.41;4995507;28;20370;-79
2022/11/06 05:24:31;;;;;;;3.50;1.52;;;;;;;19.18;51.46;101250.88;4995995;28;20073;-79
2022/11/06 05:26:58;;;;;;;3.85;1.88;;;;;;;19.18;51.52;101245.50;4996185;28;20054;-79
2022/11/06 05:29:26;;;;;;;3.40;2.00;;;;;;;19.18;51.40;101245.50;4995268;28;20050;-80
2022/11/06 05:31:53;;;;;;;3.40;1.52;;;;;;;19.16;51.70;101248.31;4994555;28;20050;-79
2022/11/06 05:34:21;;;;;;;4.05;1.50;;;;;;;19.16;51.60;101245.63;4995159;28;20054;-79
2022/11/06 05:36:48;;;;;;;4.40;1.70;;;;;;;19.17;51.31;101241.09;4995591;28;20512;-78
2022/11/06 05:39:15;;;;;;;5.07;1.60;;;;;;;19.15;51.51;101235.84;4995704;28;20038;-79
2022/11/06 05:41:43;;;;;;;2.95;1.50;;;;;;;19.15;51.38;101241.22;4995142;28;20408;-79
2022/11/06 05:44:10;;;;;;;2.85;1.40;;;;;;;19.16;51.52;101242.06;5010620;28;20054;-78
2022/11/06 05:46:37;;;;;;;4.22;1.98;;;;;;;19.15;51.32;101251.94;4995045;28;20042;-79
2022/11/06 05:49:20;;;;;;;5.00;1.67;;;;;;;19.16;51.36;101250.09;4995656;28;20038;-79
2022/11/06 05:51:47;;;;;;;4.63;1.63;;;;;;;19.15;51.35;101249.25;4994941;28;20047;-79
2022/11/06 05:54:15;;;;;;;3.28;1.42;;;;;;;19.14;51.37;101250.25;4995911;28;20046;-79
2022/11/06 05:56:42;;;;;;;3.75;1.55;;;;;;;19.13;51.41;101248.53;4995102;28;20050;-79
2022/11/06 05:59:09;;;;;;;4.47;1.65;;;;;;;19.14;51.46;101257.44;4994908;28;20045;-79
2022/11/06 06:01:37;;;;;;;2.75;1.85;;;;;;;19.13;51.41;101256.59;4995005;28;20061;-79
2022/11/06 06:04:04;;;;;;;3.08;1.58;;;;;;;19.13;51.45;101270.00;4994739;28;20053;-79
2022/11/06 06:06:32;;;;;;;3.45;1.70;;;;;;;19.13;51.39;101275.38;5009737;28;20488;-79
2022/11/06 06:08:59;;;;;;;12.88;1.63;;;;;;;19.13;51.44;101278.06;4995550;28;20046;-79
2022/11/06 06:11:27;;;;;;;2.72;1.33;;;;;;;19.12;51.22;101287.09;4994438;28;20058;-79
2022/11/06 06:13:54;;;;;;;5.00;1.30;;;;;;;19.12;51.50;101286.22;4994812;28;20406;-78
2022/11/06 06:16:21;;;;;;;3.83;1.50;;;;;;;19.11;51.28;101298.78;4993413;28;20406;-79
2022/11/06 06:18:49;;;;;;;3.97;1.20;;;;;;;19.11;51.53;101287.19;4994833;28;20046;-79
2022/11/06 06:21:17;;;;;;;5.80;1.40;;;;;;;19.11;51.29;101300.63;4994952;28;20412;-79
2022/11/06 06:23:44;;;;;;;2.85;1.52;;;;;;;19.11;51.20;101305.97;4994954;28;20051;-79
2022/11/06 06:26:11;;;;;;;3.28;1.08;;;;;;;19.10;51.23;101301.59;4995121;28;20382;-79
2022/11/06 06:28:39;;;;;;;4.57;1.23;;;;;;;19.11;51.30;101308.66;4995355;28;20046;-79
2022/11/06 06:31:07;;;;;;;2.88;1.20;;;;;;;19.11;51.23;101300.63;4994660;28;20382;-79
2022/11/06 06:33:34;;;;;;;3.33;1.23;;;;;;;19.10;51.09;101310.50;4994540;28;20046;-79
2022/11/06 06:36:03;;;;;;;2.53;1.13;;;;;;;19.09;51.33;101308.78;4994189;28;20046;-79
2022/11/06 06:38:31;;;;;;;1.85;0.93;;;;;;;19.09;51.16;101314.16;4994703;28;20050;-79
2022/11/06 06:41:03;;;;;;;2.97;1.30;;;;;;;19.09;51.25;101313.31;4994954;28;20054;-79
2022/11/06 06:43:30;;;;;;;3.65;1.42;;;;;;;19.08;51.17;101317.84;4994968;28;20050;-79
2022/11/06 06:46:06;;;;;;;3.55;1.48;;;;;;;19.08;51.12;101320.50;4994174;28;20042;-79
2022/11/06 06:48:34;;;;;;;2.97;1.27;;;;;;;19.07;51.13;101324.16;4994462;28;20054;-81
2022/11/06 06:51:02;;;;;;;3.83;1.45;;;;;;;19.08;51.10;101322.31;4994222;28;20046;-80
2022/11/06 06:53:30;;;;;;;2.22;1.10;;;;;;;19.08;51.16;101325.00;4994320;28;20402;-80
2022/11/06 06:55:59;;;;;;;2.33;1.30;;;;;;;19.07;51.13;101324.16;4994777;28;20053;-80
2022/11/06 06:58:30;;;;;;;2.55;1.13;;;;;;;19.07;51.11;101324.16;4993053;28;20058;-79
2022/11/06 07:00:59;;;;;;;3.38;0.95;;;;;;;19.07;51.24;101323.28;4994447;28;20508;-79
2022/11/06 07:03:27;;;;;;;3.85;1.30;;;;;;;19.07;51.08;101325.97;4994516;28;20402;-79
2022/11/06 07:05:57;;;;;;;2.60;1.48;;;;;;;19.06;51.13;101335.00;4994828;28;20057;-79
2022/11/06 07:08:25;;;;;;;3.72;1.20;;;;;;;19.05;51.13;101336.84;4993566;28;20382;-79
2022/11/06 07:10:58;;;;;;;4.97;1.70;;;;;;;19.05;51.06;101331.47;4994122;28;20058;-79
2022/11/06 07:13:25;;;;;;;2.58;1.38;;;;;;;19.05;50.96;101339.53;4995003;28;20050;-79
2022/11/06 07:16:02;;;;;;;2.63;1.35;;;;;;;19.04;51.15;101345.88;4994660;28;20042;-79
2022/11/06 07:18:29;;;;;;;2.40;1.20;;;;;;;19.04;51.03;101345.88;4994734;28;20062;-79
2022/11/06 07:20:56;;;;;;;2.88;1.30;;;;;;;19.05;51.06;101346.72;4994100;28;20046;-79
2022/11/06 07:23:24;;;;;;;2.63;1.13;;;;;;;19.04;50.91;101351.25;4994270;28;20057;-79
2022/11/06 07:25:52;;;;;;;3.55;1.50;;;;;;;19.04;51.13;101356.59;4994948;28;20046;-79
2022/11/06 07:28:20;;;;;;;2.30;1.10;;;;;;;19.04;51.01;101361.97;4993370;28;20051;-79
2022/11/06 07:30:47;;;;;;;2.95;1.85;;;;;;;19.05;50.91;101365.50;4993565;28;20507;-79
2022/11/06 07:33:15;;;;;;;4.70;1.20;;;;;;;19.04;51.02;101367.34;4993669;28;20050;-79
2022/11/06 07:35:43;;;;;;;2.72;1.20;;;;;;;19.02;51.08;101372.81;4993836;28;20058;-79
2022/11/06 07:38:10;;;;;;;2.53;1.13;;;;;;;19.03;50.95;101376.34;4993690;28;20057;-79
2022/11/06 07:40:38;;;;;;;2.92;1.20;;;;;;;19.03;50.87;101376.34;4994174;28;20044;-79
2022/11/06 07:43:07;;;;;;;4.28;1.92;;;;;;;19.03;51.06;101376.34;4993708;28;20056;-79
2022/11/06 07:45:35;;;;;;;2.65;1.10;;;;;;;19.02;50.88;101374.63;4993913;28;20058;-79
2022/11/06 07:48:03;;;;;;;1.67;0.90;;;;;;;19.03;51.00;101371.81;4995731;28;20462;-79
2022/11/06 07:50:31;;;;;;;1.95;1.13;;;;;;;19.04;51.04;101372.72;4994782;28;20042;-79
2022/11/06 07:53:01;;;;;;;3.00;1.10;;;;;;;19.03;51.04;101376.34;4993650;28;20061;-79
2022/11/06 07:55:29;;;;;;;2.55;1.10;;;;;;;19.03;50.72;101387.06;4995897;28;20046;-79
2022/11/06 07:57:57;;;;;;;1.83;1.00;;;;;;;19.03;50.85;101377.19;4996106;28;20054;-79
2022/11/06 08:00:25;;;;;;;2.05;0.85;;;;;;;19.03;51.03;101387.06;4998492;28;20051;-79
2022/11/06 08:02:52;;;;;;;1.95;1.00;;;;;;;19.05;50.96;101386.97;4998666;28;20046;-79
2022/11/06 08:05:20;;;;;;;2.10;0.95;;;;;;;19.04;51.02;101380.75;4999118;28;20057;-79
2022/11/06 08:07:47;;;;;;;2.45;0.95;;;;;;;19.05;50.79;101378.94;4998476;28;20061;-79
2022/11/06 08:10:14;;;;;;;2.20;1.00;;;;;;;19.05;50.94;101386.97;4997487;28;20042;-79
2022/11/06 08:12:42;;;;;;;2.45;1.13;;;;;;;19.05;50.95;101382.47;4998514;28;20493;-79
2022/11/06 08:15:09;;;;;;;2.08;1.13;;;;;;;19.07;51.02;101385.00;4997732;28;20054;-79
2022/11/06 08:17:37;;;;;;;2.20;1.10;;;;;;;19.05;50.57;101387.81;4999075;28;20049;-79
2022/11/06 08:20:05;;;;;;;3.88;1.13;;;;;;;19.07;50.87;101382.34;4997091;28;20053;-78
2022/11/06 08:22:32;;;;;;;2.67;1.20;;;;;;;19.07;50.81;101383.19;4997952;28;20053;-79
2022/11/06 08:24:59;;;;;;;2.85;0.90;;;;;;;19.08;50.78;101384.91;4998208;28;20368;-80
2022/11/06 08:27:27;;;;;;;2.33;1.15;;;;;;;19.08;50.77;101384.91;4998622;28;20046;-80
2022/11/06 08:29:54;;;;;;;2.28;0.75;;;;;;;19.08;50.68;101384.91;4997451;28;20050;-80
2022/11/06 08:32:22;;;;;;;2.60;1.13;;;;;;;19.08;50.65;101384.91;4999003;28;20046;-78
2022/11/06 08:34:49;;;;;;;2.17;0.90;;;;;;;19.08;50.65;101390.28;4998678;28;20062;-78
2022/11/06 08:37:16;;;;;;;2.42;1.00;;;;;;;19.10;51.02;101399.06;4997751;28;20051;-80
2022/11/06 08:39:43;;;;;;;1.83;0.80;;;;;;;19.10;50.72;101388.31;4998262;28;20050;-80
2022/11/06 08:42:11;;;;;;;3.58;1.00;;;;;;;19.11;50.98;101392.72;4997073;28;20046;-79
2022/11/06 08:44:38;;;;;;;1.63;0.88;;;;;;;19.13;50.42;101392.63;4997574;28;20050;-79
2022/11/06 08:47:06;;;;;;;2.42;1.05;;;;;;;19.13;49.17;101387.25;4998430;28;20046;-78
2022/11/06 08:49:33;;;;;;;3.08;1.27;;;;;;;19.14;49.31;101387.13;4997640;28;20045;-79
2022/11/06 08:52:00;;;;;;;3.08;0.95;;;;;;;19.14;49.01;101380.91;4997356;28;20042;-79
2022/11/06 08:54:27;;;;;;;2.97;0.98;;;;;;;19.15;49.13;101390.66;4997267;28;20057;-79
2022/11/06 08:56:56;;;;;;;3.05;1.00;;;;;;;19.15;48.99;101378.09;4997332;28;20061;-76
2022/11/06 08:59:23;;;;;;;1.90;0.80;;;;;;;19.16;49.00;101382.50;4997637;28;20069;-81
2022/11/06 09:01:51;;;;;;;1.90;0.90;;;;;;;19.16;48.67;101382.50;4997048;28;20042;-80
2022/11/06 09:04:18;;;;;;;5.88;1.25;;;;;;;19.17;48.62;101380.69;4997462;28;20359;-80
2022/11/06 09:06:45;;;;;;;2.40;1.10;;;;;;;19.17;48.58;101370.78;5011754;28;20059;-80
2022/11/06 09:09:13;;;;;;;3.20;1.10;;;;;;;19.17;48.72;101373.47;4996252;28;20053;-79
2022/11/06 09:11:40;;;;;;;3.33;1.00;;;;;;;19.18;48.67;101371.63;4996730;28;20046;-82
2022/11/06 09:14:09;;;;;;;2.38;1.20;;;;;;;19.19;48.73;101365.28;4997183;28;20050;-83
2022/11/06 09:16:36;;;;;;;3.70;1.30;;;;;;;19.18;48.83;101364.44;5012620;28;20405;-79
2022/11/06 09:19:03;;;;;;;2.80;1.35;;;;;;;19.19;48.81;101360.78;4997006;28;20481;-82
2022/11/06 09:21:31;;;;;;;3.70;1.15;;;;;;;19.19;48.90;101360.78;4997029;28;20043;-80
2022/11/06 09:23:58;;;;;;;4.03;1.30;;;;;;;19.20;49.11;101367.88;4996917;28;20046;-81
2022/11/06 09:26:26;;;;;;;2.50;1.08;;;;;;;19.20;48.78;101358.94;4997026;28;20049;-81
2022/11/06 09:28:53;;;;;;;3.20;1.00;;;;;;;19.20;49.71;101367.88;5011840;28;20050;-81
2022/11/06 09:31:20;;;;;;;3.75;1.30;;;;;;;19.21;49.77;101360.69;4997045;28;20045;-80
2022/11/06 09:33:47;;;;;;;2.35;1.00;;;;;;;19.20;49.17;101362.50;4996711;28;20046;-79
2022/11/06 09:36:15;;;;;;;2.47;1.10;;;;;;;19.22;49.90;101367.75;4997388;28;20046;-82
2022/11/06 09:38:42;;;;;;;9.60;1.50;;;;;;;19.22;49.95;101371.28;4997001;28;20047;-80
2022/11/06 09:41:44;;;;;;;6.88;1.33;;;;;;;19.22;49.66;101368.59;4996186;28;20049;-79
2022/11/06 09:44:17;;;;;;;4.63;1.40;;;;;;;19.22;49.83;101360.53;4996162;28;20050;-81
2022/11/06 09:46:46;;;;;;;5.00;1.58;;;;;;;19.23;49.93;101361.41;4995140;28;20059;-81
2022/11/06 09:49:32;;;;;;;2.70;1.27;;;;;;;19.23;50.65;101362.25;4996393;28;20050;-79
2022/11/06 09:52:11;;;;;;;4.57;1.80;;;;;;;19.24;49.35;101357.72;5011236;28;20058;-85
2022/11/06 09:54:59;;;;;;;5.97;1.50;;;;;;;19.24;49.63;101361.28;4996512;28;20049;-84
2022/11/06 09:57:50;;;;;;;11.50;2.10;;;;;;;19.24;48.66;101355.03;4996155;28;20046;-83
2022/11/06 10:00:18;;;;;;;5.65;1.65;;;;;;;19.23;48.47;101348.81;5011734;28;20046;-81
2022/11/06 10:02:50;;;;;;;5.90;2.30;;;;;;;19.23;47.18;101347.97;4996129;28;20405;-82
2022/11/06 10:05:24;;;;;;;7.45;2.42;;;;;;;19.23;46.93;101356.88;5012146;28;20054;-86
2022/11/06 10:07:55;;;;;;;6.68;2.25;;;;;;;19.23;47.20;101346.16;4996319;28;20050;-83
2022/11/06 10:11:03;;;;;;;3.88;2.10;;;;;;;19.24;47.58;101339.81;4995386;28;20049;-81
2022/11/06 10:13:58;;;;;;;4.30;2.13;;;;;;;19.24;47.62;101345.19;5013301;28;20065;-80
2022/11/06 10:16:58;;;;;;;6.85;2.90;;;;;;;19.24;47.46;101345.19;5014107;28;20129;-83
2022/11/06 10:19:51;;;;;;;6.25;2.25;;;;;;;19.25;48.24;101338.00;5013897;28;20045;-83
2022/11/06 10:22:26;;;;;;;3.40;2.25;;;;;;;19.25;48.43;101333.47;5013441;28;20045;-84
2022/11/06 10:25:08;;;;;;;3.92;2.20;;;;;;;19.26;48.56;101337.00;5013888;28;20069;-84
2022/11/06 10:27:40;;;;;;;4.97;2.58;;;;;;;19.26;47.75;101335.19;4996999;28;20087;-85
2022/11/06 10:30:16;;;;;;;5.80;2.80;;;;;;;19.25;47.02;101328.09;5013337;28;20432;-80
2022/11/06 10:33:01;;;;;;;8.48;4.10;;;;;;;19.26;47.51;101327.13;5017080;28;20061;-79
2022/11/06 10:35:53;;;;;;;5.18;3.10;;;;;;;19.27;46.92;101326.13;5028940;28;20052;-85
2022/11/06 10:38:34;;;;;;;8.13;3.13;;;;;;;19.27;47.38;101326.13;5016155;28;20424;-80
2022/11/06 10:41:02;;;;;;;5.45;2.50;;;;;;;19.27;46.95;101320.78;5032355;28;20425;-80
2022/11/06 10:43:45;;;;;;;7.93;3.30;;;;;;;19.27;44.46;101320.78;5032636;28;20053;-78
2022/11/06 10:46:39;;;;;;;4.60;2.95;;;;;;;19.22;42.62;101314.91;5016255;28;20061;-82
2022/11/06 10:49:31;;;;;;;6.97;3.45;;;;;;;19.16;42.05;101314.53;5032579;28;20382;-79
2022/11/06 10:52:30;;;;;;;4.78;3.05;;;;;;;19.08;41.53;101309.78;4995195;28;20503;-83
2022/11/06 10:55:25;;;;;;;4.80;3.10;;;;;;;19.03;42.27;101311.94;5013150;28;20057;-84
2022/11/06 10:58:01;;;;;;;5.18;2.85;;;;;;;19.02;43.33;101310.22;4996928;28;20065;-82
2022/11/06 11:00:31;;;;;;;4.63;3.15;;;;;;;19.03;43.38;101306.56;4996565;28;20057;-85
2022/11/06 11:03:01;;;;;;;5.05;3.03;;;;;;;19.05;43.57;101311.84;5013308;28;20046;-84
2022/11/06 11:05:40;;;;;;;7.53;2.92;;;;;;;19.07;44.25;101297.31;5013174;28;20057;-86
2022/11/06 11:08:39;;;;;;;7.28;2.58;;;;;;;19.09;44.26;101303.44;4996901;28;20088;-86
2022/11/06 11:11:12;;;;;;;6.88;3.05;;;;;;;19.11;44.89;101298.78;5013217;28;20062;-86
2022/11/06 11:13:44;;;;;;;11.10;2.58;;;;;;;19.12;45.63;101294.25;4997057;28;20098;-86
2022/11/06 11:16:23;;;;;;;6.00;2.60;;;;;;;19.13;46.67;101293.31;4996661;28;20068;-84
2022/11/06 11:18:51;;;;;;;4.28;2.20;;;;;;;19.13;46.60;101291.47;5013323;28;20509;-85
2022/11/06 11:21:18;;;;;;;7.18;2.10;;;;;;;19.14;46.59;101295.88;4996361;28;20057;-85
2022/11/06 11:24:12;;;;;;;5.35;2.20;;;;;;;19.14;46.31;101301.25;4996271;28;20065;-85
2022/11/06 11:26:45;;;;;;;4.97;1.73;;;;;;;19.14;47.05;101282.44;5013147;28;20452;-85
2022/11/06 11:29:20;;;;;;;3.30;1.50;;;;;;;19.15;46.82;101283.31;5013208;28;20382;-85
2022/11/06 11:31:52;;;;;;;3.72;1.85;;;;;;;19.15;47.25;101277.94;5002164;28;20494;-85
2022/11/06 11:34:25;;;;;;;4.57;1.40;;;;;;;19.14;47.17;101277.09;4998191;28;20513;-84
2022/11/06 11:36:59;;;;;;;3.67;1.80;;;;;;;19.16;47.39;101285.00;4997724;28;20054;-84
2022/11/06 11:39:32;;;;;;;5.05;1.75;;;;;;;19.15;47.55;101278.78;4999567;28;20525;-84
2022/11/06 11:42:30;;;;;;;4.83;1.80;;;;;;;19.15;47.50;101265.38;5016799;28;20042;-84
2022/11/06 11:45:07;;;;;;;2.60;1.30;;;;;;;19.16;47.68;101274.25;5017227;28;20639;-84
2022/11/06 11:47:40;;;;;;;4.88;1.73;;;;;;;19.15;47.83;101268.03;5019036;28;20058;-84
2022/11/06 11:50:31;;;;;;;2.88;1.42;;;;;;;19.17;47.86;101267.94;5017202;28;20054;-84
2022/11/06 11:53:13;;;;;;;4.35;1.70;;;;;;;19.16;47.97;101264.41;5018498;28;20049;-85
2022/11/06 11:55:44;;;;;;;3.30;1.63;;;;;;;19.16;47.98;101269.78;5018274;28;20053;-84
2022/11/06 11:58:22;;;;;;;4.55;1.73;;;;;;;19.17;48.38;101267.94;5018500;28;20050;-85
2022/11/06 12:00:52;;;;;;;4.43;1.48;;;;;;;19.16;48.25;101264.41;5017828;28;20049;-84
2022/11/06 12:03:24;;;;;;;3.65;1.10;;;;;;;19.17;48.28;101271.47;5016628;28;20049;-84
2022/11/06 12:05:53;;;;;;;3.72;1.30;;;;;;;19.17;48.52;101271.47;5018276;28;20050;-84